LRS1080 MROC-MRAF
Flight info
| Callsign | LRS1080 |
|---|---|
| Flight time | 0h 28m |
| Altitude | 8000 |
| Route | TIO |
| Aircraft | C208/L-SDFGRY/C |
Departure
| Time | 2026-05-07 21:19 |
|---|---|
| Airport | Juan Santamaría International Airport (MROC) |
Arrival
| Time | 2026-05-07 21:47 |
|---|---|
| Airport | Cóbano Airport (MRAF) |
| Time | Latitude | Longitude | Altitude | Speed | Heading |
|---|---|---|---|---|---|
| 2026-05-07 20:45 | 9.99774 | -84.20879 | 3033 ft | 0 kts | 141° |
| 2026-05-07 21:12 | 9.99773 | -84.20879 | 3033 ft | 1 kts | 156° |
| 2026-05-07 21:13 | 9.99747 | -84.20887 | 3035 ft | 8 kts | 177° |
| 2026-05-07 21:13 | 9.99690 | -84.20924 | 3032 ft | 13 kts | 200° |
| 2026-05-07 21:13 | 9.99578 | -84.20888 | 3031 ft | 21 kts | 161° |
| 2026-05-07 21:13 | 9.99508 | -84.20836 | 3033 ft | 11 kts | 69° |
| 2026-05-07 21:14 | 9.99548 | -84.20736 | 3033 ft | 20 kts | 70° |
| 2026-05-07 21:14 | 9.99604 | -84.20574 | 3034 ft | 29 kts | 68° |
| 2026-05-07 21:14 | 9.99684 | -84.20362 | 3034 ft | 35 kts | 69° |
| 2026-05-07 21:14 | 9.99755 | -84.20169 | 3033 ft | 24 kts | 71° |
| 2026-05-07 21:15 | 9.99802 | -84.20033 | 3032 ft | 15 kts | 102° |
| 2026-05-07 21:15 | 9.99740 | -84.19990 | 3035 ft | 12 kts | 159° |
| 2026-05-07 21:15 | 9.99629 | -84.19942 | 3035 ft | 20 kts | 156° |
| 2026-05-07 21:15 | 9.99622 | -84.19806 | 3037 ft | 26 kts | 71° |
| 2026-05-07 21:16 | 9.99687 | -84.19622 | 3047 ft | 24 kts | 65° |
| 2026-05-07 21:16 | 9.99748 | -84.19529 | 3053 ft | 15 kts | 27° |
| 2026-05-07 21:16 | 9.99797 | -84.19538 | 3054 ft | 0 kts | 333° |
| 2026-05-07 21:17 | 9.99825 | -84.19549 | 3054 ft | 9 kts | 336° |
| 2026-05-07 21:17 | 9.99862 | -84.19620 | 3051 ft | 17 kts | 258° |
| 2026-05-07 21:17 | 9.99830 | -84.19694 | 3047 ft | 12 kts | 253° |
| 2026-05-07 21:18 | 9.99771 | -84.19869 | 3038 ft | 46 kts | 250° |
| 2026-05-07 21:18 | 9.99610 | -84.20302 | 3045 ft | 82 kts | 248° |
| 2026-05-07 21:18 | 9.99435 | -84.20864 | 3247 ft | 86 kts | 254° |
| 2026-05-07 21:18 | 9.99252 | -84.21479 | 3448 ft | 92 kts | 256° |
| 2026-05-07 21:19 | 9.98988 | -84.22064 | 3647 ft | 95 kts | 244° |
| 2026-05-07 21:19 | 9.98637 | -84.22750 | 3740 ft | 120 kts | 250° |
| 2026-05-07 21:19 | 9.98341 | -84.23489 | 4304 ft | 106 kts | 250° |
| 2026-05-07 21:19 | 9.98108 | -84.24180 | 4745 ft | 113 kts | 245° |
| 2026-05-07 21:20 | 9.97850 | -84.25001 | 4999 ft | 128 kts | 258° |
| 2026-05-07 21:20 | 9.97610 | -84.25938 | 5196 ft | 145 kts | 258° |
| 2026-05-07 21:20 | 9.97328 | -84.26936 | 5360 ft | 149 kts | 251° |
| 2026-05-07 21:20 | 9.96954 | -84.27932 | 5560 ft | 155 kts | 256° |
| 2026-05-07 21:21 | 9.96631 | -84.29000 | 5754 ft | 161 kts | 256° |
| 2026-05-07 21:21 | 9.96249 | -84.30062 | 5935 ft | 159 kts | 252° |
| 2026-05-07 21:21 | 9.95862 | -84.31097 | 6115 ft | 154 kts | 254° |
| 2026-05-07 21:21 | 9.95523 | -84.32112 | 6299 ft | 150 kts | 255° |
| 2026-05-07 21:22 | 9.95201 | -84.33083 | 6474 ft | 146 kts | 255° |
| 2026-05-07 21:22 | 9.94871 | -84.34056 | 6629 ft | 145 kts | 255° |
| 2026-05-07 21:22 | 9.94547 | -84.35014 | 6807 ft | 144 kts | 254° |
| 2026-05-07 21:22 | 9.94222 | -84.35974 | 6980 ft | 144 kts | 254° |
| 2026-05-07 21:23 | 9.93892 | -84.36974 | 7035 ft | 153 kts | 254° |
| 2026-05-07 21:23 | 9.93555 | -84.37995 | 7080 ft | 154 kts | 253° |
| 2026-05-07 21:23 | 9.93207 | -84.39024 | 7189 ft | 154 kts | 253° |
| 2026-05-07 21:23 | 9.92858 | -84.40055 | 7303 ft | 155 kts | 253° |
| 2026-05-07 21:24 | 9.92503 | -84.41101 | 7423 ft | 157 kts | 253° |
| 2026-05-07 21:24 | 9.92158 | -84.42131 | 7535 ft | 156 kts | 253° |
| 2026-05-07 21:24 | 9.91806 | -84.43174 | 7652 ft | 157 kts | 252° |
| 2026-05-07 21:24 | 9.91451 | -84.44218 | 7765 ft | 157 kts | 252° |
| 2026-05-07 21:25 | 9.91094 | -84.45267 | 7885 ft | 157 kts | 252° |
| 2026-05-07 21:25 | 9.90736 | -84.46338 | 7895 ft | 164 kts | 252° |
| 2026-05-07 21:25 | 9.90363 | -84.47455 | 7893 ft | 171 kts | 253° |
| 2026-05-07 21:25 | 9.89981 | -84.48602 | 7908 ft | 173 kts | 253° |
| 2026-05-07 21:26 | 9.89587 | -84.49766 | 7896 ft | 175 kts | 253° |
| 2026-05-07 21:26 | 9.89196 | -84.50921 | 7895 ft | 176 kts | 252° |
| 2026-05-07 21:26 | 9.88796 | -84.52103 | 7869 ft | 178 kts | 252° |
| 2026-05-07 21:26 | 9.88394 | -84.53293 | 7873 ft | 179 kts | 253° |
| 2026-05-07 21:27 | 9.87992 | -84.54486 | 7873 ft | 179 kts | 252° |
| 2026-05-07 21:27 | 9.87587 | -84.55677 | 7870 ft | 179 kts | 252° |
| 2026-05-07 21:27 | 9.87182 | -84.56871 | 7870 ft | 179 kts | 253° |
| 2026-05-07 21:27 | 9.86783 | -84.58056 | 7874 ft | 178 kts | 253° |
| 2026-05-07 21:28 | 9.86380 | -84.59242 | 7875 ft | 178 kts | 253° |
| 2026-05-07 21:28 | 9.85981 | -84.60415 | 7870 ft | 178 kts | 252° |
| 2026-05-07 21:28 | 9.85576 | -84.61607 | 7873 ft | 179 kts | 253° |
| 2026-05-07 21:28 | 9.85176 | -84.62796 | 7868 ft | 179 kts | 252° |
| 2026-05-07 21:29 | 9.84768 | -84.63988 | 7872 ft | 179 kts | 252° |
| 2026-05-07 21:29 | 9.84364 | -84.65181 | 7875 ft | 178 kts | 253° |
| 2026-05-07 21:29 | 9.83959 | -84.66373 | 7868 ft | 179 kts | 252° |
| 2026-05-07 21:29 | 9.83557 | -84.67566 | 7855 ft | 178 kts | 252° |
| 2026-05-07 21:30 | 9.83154 | -84.68750 | 7860 ft | 178 kts | 252° |
| 2026-05-07 21:30 | 9.82749 | -84.69940 | 7856 ft | 178 kts | 252° |
| 2026-05-07 21:30 | 9.82353 | -84.71112 | 7858 ft | 178 kts | 252° |
| 2026-05-07 21:30 | 9.81950 | -84.72305 | 7861 ft | 178 kts | 252° |
| 2026-05-07 21:31 | 9.81520 | -84.73480 | 7857 ft | 179 kts | 246° |
| 2026-05-07 21:31 | 9.81038 | -84.74658 | 7875 ft | 184 kts | 249° |
| 2026-05-07 21:31 | 9.80623 | -84.75903 | 7871 ft | 190 kts | 256° |
| 2026-05-07 21:31 | 9.80298 | -84.77214 | 7866 ft | 196 kts | 257° |
| 2026-05-07 21:32 | 9.79868 | -84.78460 | 8396 ft | 178 kts | 248° |
| 2026-05-07 21:32 | 9.79463 | -84.79733 | 8188 ft | 197 kts | 252° |
| 2026-05-07 21:32 | 9.79001 | -84.81057 | 7996 ft | 204 kts | 253° |
| 2026-05-07 21:32 | 9.78554 | -84.82415 | 7851 ft | 200 kts | 251° |
| 2026-05-07 21:33 | 9.78099 | -84.83695 | 7838 ft | 187 kts | 251° |
| 2026-05-07 21:33 | 9.77670 | -84.84899 | 7839 ft | 178 kts | 251° |
| 2026-05-07 21:33 | 9.77264 | -84.86070 | 7843 ft | 174 kts | 251° |
| 2026-05-07 21:33 | 9.76873 | -84.87219 | 7841 ft | 171 kts | 251° |
| 2026-05-07 21:34 | 9.76486 | -84.88355 | 7837 ft | 169 kts | 251° |
| 2026-05-07 21:34 | 9.76104 | -84.89481 | 7842 ft | 169 kts | 251° |
| 2026-05-07 21:34 | 9.75725 | -84.90595 | 7841 ft | 169 kts | 251° |
| 2026-05-07 21:34 | 9.75343 | -84.91717 | 7841 ft | 169 kts | 251° |
| 2026-05-07 21:35 | 9.74960 | -84.92841 | 7835 ft | 169 kts | 251° |
| 2026-05-07 21:35 | 9.74579 | -84.93964 | 7840 ft | 168 kts | 252° |
| 2026-05-07 21:35 | 9.74198 | -84.95084 | 7842 ft | 168 kts | 251° |
| 2026-05-07 21:35 | 9.73818 | -84.96202 | 7841 ft | 168 kts | 251° |
| 2026-05-07 21:36 | 9.73435 | -84.97327 | 7839 ft | 168 kts | 251° |
| 2026-05-07 21:36 | 9.73056 | -84.98439 | 7843 ft | 167 kts | 251° |
| 2026-05-07 21:36 | 9.72673 | -84.99567 | 7730 ft | 174 kts | 252° |
| 2026-05-07 21:36 | 9.72282 | -85.00750 | 7500 ft | 184 kts | 253° |
| 2026-05-07 21:37 | 9.71866 | -85.01998 | 7272 ft | 189 kts | 252° |
| 2026-05-07 21:37 | 9.71436 | -85.03264 | 7039 ft | 192 kts | 252° |
| 2026-05-07 21:37 | 9.70833 | -85.04465 | 6761 ft | 194 kts | 229° |
| 2026-05-07 21:37 | 9.69689 | -85.05142 | 6460 ft | 192 kts | 192° |
| 2026-05-07 21:38 | 9.68369 | -85.05140 | 6202 ft | 189 kts | 174° |
| 2026-05-07 21:38 | 9.67102 | -85.05439 | 5994 ft | 190 kts | 206° |
| 2026-05-07 21:38 | 9.66210 | -85.06394 | 5789 ft | 191 kts | 245° |
| 2026-05-07 21:38 | 9.65684 | -85.07629 | 5547 ft | 191 kts | 249° |
| 2026-05-07 21:39 | 9.65179 | -85.08859 | 5303 ft | 190 kts | 249° |
| 2026-05-07 21:39 | 9.64667 | -85.10099 | 5053 ft | 190 kts | 249° |
| 2026-05-07 21:39 | 9.64160 | -85.11330 | 4812 ft | 190 kts | 249° |
| 2026-05-07 21:39 | 9.63649 | -85.12563 | 4561 ft | 189 kts | 249° |
| 2026-05-07 21:40 | 9.63132 | -85.13796 | 4314 ft | 190 kts | 249° |
| 2026-05-07 21:40 | 9.62641 | -85.14963 | 4049 ft | 166 kts | 248° |
| 2026-05-07 21:40 | 9.62208 | -85.15959 | 3767 ft | 144 kts | 247° |
| 2026-05-07 21:40 | 9.61819 | -85.16843 | 3489 ft | 132 kts | 247° |
| 2026-05-07 21:41 | 9.61477 | -85.17670 | 3228 ft | 128 kts | 251° |
| 2026-05-07 21:41 | 9.61217 | -85.18512 | 3203 ft | 124 kts | 255° |
| 2026-05-07 21:41 | 9.61011 | -85.19354 | 3202 ft | 122 kts | 258° |
| 2026-05-07 21:41 | 9.60849 | -85.20189 | 3200 ft | 121 kts | 261° |
| 2026-05-07 21:42 | 9.60726 | -85.21025 | 3201 ft | 120 kts | 263° |
| 2026-05-07 21:42 | 9.60952 | -85.21784 | 3198 ft | 117 kts | 327° |
| 2026-05-07 21:42 | 9.61676 | -85.21751 | 3205 ft | 111 kts | 48° |
| 2026-05-07 21:42 | 9.62016 | -85.21047 | 3212 ft | 120 kts | 70° |
| 2026-05-07 21:43 | 9.62391 | -85.20249 | 3210 ft | 130 kts | 64° |
| 2026-05-07 21:43 | 9.62822 | -85.19411 | 3175 ft | 138 kts | 65° |
| 2026-05-07 21:43 | 9.63266 | -85.18530 | 3127 ft | 143 kts | 65° |
| 2026-05-07 21:43 | 9.63719 | -85.17635 | 3079 ft | 135 kts | 65° |
| 2026-05-07 21:44 | 9.64134 | -85.16858 | 3005 ft | 118 kts | 64° |
| 2026-05-07 21:44 | 9.64519 | -85.16147 | 2917 ft | 112 kts | 63° |
| 2026-05-07 21:44 | 9.64889 | -85.15467 | 2826 ft | 109 kts | 64° |
| 2026-05-07 21:44 | 9.65254 | -85.14795 | 2744 ft | 108 kts | 63° |
| 2026-05-07 21:45 | 9.65610 | -85.14140 | 2699 ft | 105 kts | 64° |
| 2026-05-07 21:45 | 9.66152 | -85.13689 | 2679 ft | 102 kts | 17° |
| 2026-05-07 21:45 | 9.66818 | -85.13589 | 2698 ft | 91 kts | 12° |
| 2026-05-07 21:45 | 9.67431 | -85.13488 | 2675 ft | 89 kts | 12° |
| 2026-05-07 21:46 | 9.68012 | -85.13148 | 2412 ft | 100 kts | 52° |
| 2026-05-07 21:46 | 9.68304 | -85.12519 | 2101 ft | 99 kts | 79° |
| 2026-05-07 21:46 | 9.68512 | -85.11820 | 1617 ft | 110 kts | 74° |
| 2026-05-07 21:46 | 9.68764 | -85.11099 | 1173 ft | 105 kts | 74° |
| 2026-05-07 21:47 | 9.68945 | -85.10410 | 784 ft | 97 kts | 75° |
| 2026-05-07 21:47 | 9.69131 | -85.09793 | 545 ft | 86 kts | 76° |
| 2026-05-07 21:47 | 9.69281 | -85.09280 | 495 ft | 65 kts | 75° |
| 2026-05-07 21:47 | 9.69360 | -85.08998 | 493 ft | 14 kts | 68° |
| 2026-05-07 21:48 | 9.69370 | -85.08952 | 493 ft | 4 kts | 251° |
| 2026-05-07 21:48 | 9.69349 | -85.09019 | 493 ft | 15 kts | 252° |
| 2026-05-07 21:48 | 9.69335 | -85.09067 | 493 ft | 7 kts | 253° |
| 2026-05-07 21:48 | 9.69314 | -85.09151 | 494 ft | 17 kts | 264° |
| 2026-05-07 21:49 | 9.69270 | -85.09296 | 495 ft | 26 kts | 257° |
| 2026-05-07 21:49 | 9.69231 | -85.09429 | 495 ft | 15 kts | 256° |
| 2026-05-07 21:49 | 9.69210 | -85.09512 | 495 ft | 11 kts | 253° |
| 2026-05-07 21:49 | 9.69188 | -85.09585 | 495 ft | 11 kts | 270° |
| 2026-05-07 21:50 | 9.69212 | -85.09603 | 493 ft | 2 kts | 58° |
| 2026-05-07 21:50 | 9.69219 | -85.09583 | 492 ft | 0 kts | 69° |
| 2026-05-07 21:51 | 9.69219 | -85.09584 | 492 ft | 0 kts | 69° |